Time;durP1;ratioP1;P1;durP2;ratioP2;P2;SDS_P1;SDS_P2;PMS_P1;PMS_P2;Temp;Humidity;BMP_temperature;BMP_pressure;BME280_temperature;BME280_humidity;BME280_pressure;Samples;Min_cycle;Max_cycle;Signal;HPM_P1;HPM_P2
2024/01/21 00:00:35;;;;;;;5.97;4.03;;;13.70;32.30;;;;;;5149117;27;45909;-49
2024/01/21 00:03:04;;;;;;;4.60;3.08;;;13.70;32.30;;;;;;5150235;27;45267;-49
2024/01/21 00:05:31;;;;;;;4.60;3.30;;;13.70;32.50;;;;;;5150258;27;45193;-48
2024/01/21 00:07:57;;;;;;;5.25;3.55;;;13.70;32.40;;;;;;5146576;27;46247;-48
2024/01/21 00:10:24;;;;;;;5.53;3.50;;;13.70;32.50;;;;;;5147264;27;45305;-48
2024/01/21 00:12:51;;;;;;;6.38;3.50;;;13.70;32.50;;;;;;5148939;27;44715;-49
2024/01/21 00:15:18;;;;;;;6.32;3.50;;;13.70;32.50;;;;;;5149269;27;45257;-48
2024/01/21 00:17:44;;;;;;;4.18;2.88;;;13.70;32.50;;;;;;5147285;27;46309;-48
2024/01/21 00:20:13;;;;;;;4.88;3.13;;;13.70;32.50;;;;;;5150101;27;45384;-48
2024/01/21 00:22:40;;;;;;;4.75;3.00;;;13.70;32.40;;;;;;5147480;27;45452;-48
2024/01/21 00:25:09;;;;;;;9.23;3.25;;;13.70;32.30;;;;;;5149793;27;45219;-48
2024/01/21 00:27:35;;;;;;;5.32;3.47;;;13.80;32.50;;;;;;5146737;27;46653;-48
2024/01/21 00:30:02;;;;;;;5.93;3.55;;;13.80;32.40;;;;;;5149337;27;45126;-48
2024/01/21 00:32:29;;;;;;;5.43;3.40;;;13.80;32.30;;;;;;5147838;27;44644;-48
2024/01/21 00:34:56;;;;;;;4.43;2.92;;;13.80;32.30;;;;;;5148356;27;45273;-48
2024/01/21 00:37:24;;;;;;;5.68;3.35;;;13.80;32.40;;;;;;5148409;27;46472;-48
2024/01/21 00:39:51;;;;;;;4.82;2.85;;;13.80;32.30;;;;;;5143509;27;45182;-48
2024/01/21 00:42:17;;;;;;;7.03;3.65;;;13.80;32.20;;;;;;5149824;27;45237;-48
2024/01/21 00:44:44;;;;;;;6.63;2.80;;;13.90;32.40;;;;;;5148184;27;45034;-48
2024/01/21 00:47:11;;;;;;;5.70;3.20;;;13.80;32.40;;;;;;5148466;27;47472;-49
2024/01/21 00:49:40;;;;;;;4.88;3.33;;;13.80;32.50;;;;;;5146837;27;45104;-48
2024/01/21 00:52:07;;;;;;;4.30;2.95;;;13.80;32.40;;;;;;5148446;27;45155;-48
2024/01/21 00:54:35;;;;;;;4.32;2.83;;;13.80;32.50;;;;;;5148038;27;45531;-49
2024/01/21 00:57:02;;;;;;;5.10;3.20;;;13.80;32.50;;;;;;5147329;27;45221;-48
2024/01/21 00:59:29;;;;;;;5.18;3.15;;;13.80;32.40;;;;;;5149191;27;45756;-49
2024/01/21 01:01:56;;;;;;;7.68;3.38;;;13.80;32.40;;;;;;5148264;27;45243;-49
2024/01/21 01:04:23;;;;;;;6.00;2.88;;;13.80;32.40;;;;;;5149445;27;44754;-48
2024/01/21 01:06:49;;;;;;;5.10;3.47;;;13.80;32.30;;;;;;5147509;27;48382;-48
2024/01/21 01:09:16;;;;;;;4.40;2.75;;;13.70;32.20;;;;;;5151125;27;45282;-49
2024/01/21 01:11:44;;;;;;;4.90;3.00;;;13.80;32.20;;;;;;5154754;27;45210;-49
2024/01/21 01:14:11;;;;;;;4.88;3.05;;;13.70;32.20;;;;;;5153672;27;44687;-48
2024/01/21 01:16:39;;;;;;;4.75;3.03;;;13.80;32.30;;;;;;5151720;27;44973;-49
2024/01/21 01:19:06;;;;;;;4.15;3.05;;;13.80;32.30;;;;;;5150808;27;46338;-48
2024/01/21 01:21:33;;;;;;;5.10;2.92;;;13.80;32.20;;;;;;5152641;27;45368;-48
2024/01/21 01:24:00;;;;;;;5.72;3.28;;;13.80;32.20;;;;;;5149249;27;45346;-49
2024/01/21 01:26:26;;;;;;;4.95;3.35;;;13.90;32.30;;;;;;5150682;27;45228;-48
2024/01/21 01:28:54;;;;;;;5.07;3.20;;;13.90;32.20;;;;;;5153918;27;45180;-48
2024/01/21 01:31:21;;;;;;;4.40;3.25;;;13.90;32.30;;;;;;5150801;27;45339;-49
2024/01/21 01:33:48;;;;;;;4.63;3.10;;;13.90;32.30;;;;;;5154778;27;46116;-48
2024/01/21 01:36:15;;;;;;;4.95;3.00;;;13.90;32.30;;;;;;5151444;27;45167;-49
2024/01/21 01:38:42;;;;;;;6.18;3.40;;;13.90;32.40;;;;;;5151760;27;45183;-49
2024/01/21 01:41:08;;;;;;;4.40;2.97;;;13.90;32.40;;;;;;5150997;27;45192;-49
2024/01/21 01:43:35;;;;;;;4.88;3.30;;;13.80;32.40;;;;;;5151976;27;45525;-49
2024/01/21 01:46:05;;;;;;;5.50;3.72;;;13.80;32.40;;;;;;5151741;27;45502;-49
2024/01/21 01:48:33;;;;;;;4.95;3.42;;;13.80;32.50;;;;;;5152345;27;45227;-49
2024/01/21 01:51:03;;;;;;;5.45;3.28;;;13.80;32.50;;;;;;5152978;27;45222;-49
2024/01/21 01:53:31;;;;;;;6.18;3.30;;;13.80;32.50;;;;;;5150007;27;44902;-49
2024/01/21 01:55:58;;;;;;;5.35;3.00;;;13.80;32.50;;;;;;5148808;27;47022;-49
2024/01/21 01:58:27;;;;;;;5.55;3.35;;;13.80;32.60;;;;;;5149625;27;45341;-49
2024/01/21 02:00:54;;;;;;;5.18;3.53;;;13.80;32.50;;;;;;5156590;27;45403;-48
2024/01/21 02:03:24;;;;;;;5.35;3.33;;;13.80;32.60;;;;;;5155291;27;45299;-49
2024/01/21 02:05:50;;;;;;;6.43;3.40;;;13.80;32.50;;;;;;5154287;27;45605;-48
2024/01/21 02:08:17;;;;;;;5.22;3.35;;;13.80;34.00;;;;;;5148233;27;45185;-48
2024/01/21 02:10:44;;;;;;;5.63;3.33;;;13.80;32.60;;;;;;5157448;27;45251;-48
2024/01/21 02:13:11;;;;;;;5.10;3.63;;;13.80;32.50;;;;;;5153257;27;45330;-48
2024/01/21 02:15:38;;;;;;;5.70;3.58;;;13.80;32.50;;;;;;5155757;27;45264;-48
2024/01/21 02:18:05;;;;;;;4.78;3.42;;;13.90;32.60;;;;;;5150759;27;45300;-48
2024/01/21 02:20:34;;;;;;;7.97;3.80;;;13.90;32.50;;;;;;5153171;27;45197;-48
2024/01/21 02:23:06;;;;;;;5.35;3.65;;;13.90;32.30;;;;;;5154007;27;45190;-48
2024/01/21 02:25:33;;;;;;;6.68;4.10;;;13.90;32.40;;;;;;5149525;27;45993;-49
2024/01/21 02:28:00;;;;;;;5.95;3.83;;;13.90;33.50;;;;;;5150504;27;45131;-48
2024/01/21 02:30:27;;;;;;;6.18;3.97;;;13.90;32.40;;;;;;5151911;27;45261;-49
2024/01/21 02:32:53;;;;;;;6.70;3.95;;;13.90;32.40;;;;;;5152914;27;45232;-49
2024/01/21 02:35:20;;;;;;;5.90;3.75;;;13.80;32.10;;;;;;5152581;27;45385;-48
2024/01/21 02:37:47;;;;;;;6.15;3.97;;;13.70;31.40;;;;;;5152148;27;46563;-49
2024/01/21 02:40:15;;;;;;;5.05;3.55;;;13.70;30.90;;;;;;5151088;27;45172;-48
2024/01/21 02:42:42;;;;;;;6.57;3.78;;;13.60;30.80;;;;;;5149839;27;45135;-49
2024/01/21 02:45:09;;;;;;;5.93;3.80;;;13.60;30.50;;;;;;5151326;27;47475;-49
2024/01/21 02:47:35;;;;;;;6.32;4.40;;;13.60;30.30;;;;;;5151516;27;45205;-49
2024/01/21 02:50:02;;;;;;;6.30;4.28;;;13.60;30.10;;;;;;5150702;27;45195;-49
2024/01/21 02:52:29;;;;;;;6.60;4.45;;;13.60;30.00;;;;;;5151441;27;45220;-49
2024/01/21 02:54:56;;;;;;;7.00;4.63;;;13.50;30.00;;;;;;5148990;27;46297;-49
2024/01/21 02:57:23;;;;;;;7.00;4.40;;;13.50;29.90;;;;;;5149979;27;45236;-49
2024/01/21 02:59:50;;;;;;;7.90;4.65;;;13.50;29.80;;;;;;5152306;27;45340;-49
2024/01/21 03:02:17;;;;;;;7.43;4.40;;;13.50;29.80;;;;;;5151011;27;45140;-49
2024/01/21 03:04:44;;;;;;;7.53;4.57;;;13.50;29.80;;;;;;5152283;27;46234;-49
2024/01/21 03:07:10;;;;;;;7.30;4.70;;;13.60;29.70;;;;;;5154517;27;45113;-49
2024/01/21 03:09:37;;;;;;;7.03;4.15;;;13.60;29.60;;;;;;5153722;27;45331;-49
2024/01/21 03:12:04;;;;;;;7.18;4.38;;;13.60;29.60;;;;;;5151140;27;45087;-49
2024/01/21 03:14:32;;;;;;;6.00;3.88;;;13.60;29.50;;;;;;5150705;27;47948;-49
2024/01/21 03:16:59;;;;;;;7.43;4.47;;;13.60;29.60;;;;;;5146742;27;45350;-49
2024/01/21 03:19:26;;;;;;;6.70;4.28;;;13.60;29.30;;;;;;5150416;27;45125;-49
2024/01/21 03:21:53;;;;;;;6.53;4.18;;;13.60;29.40;;;;;;5154825;27;45445;-49
2024/01/21 03:24:19;;;;;;;6.57;3.85;;;13.60;29.50;;;;;;5149444;27;46031;-49
2024/01/21 03:26:46;;;;;;;5.82;3.65;;;13.60;29.40;;;;;;5151498;27;45187;-49
2024/01/21 03:29:13;;;;;;;6.68;4.57;;;13.60;29.50;;;;;;5153436;27;45395;-49
2024/01/21 03:31:41;;;;;;;7.95;4.40;;;13.60;29.50;;;;;;5148968;27;46689;-49
2024/01/21 03:34:08;;;;;;;7.18;4.38;;;13.60;29.40;;;;;;5151728;27;45141;-49
2024/01/21 03:36:34;;;;;;;7.43;4.50;;;13.60;29.50;;;;;;5148148;27;45252;-49
2024/01/21 03:39:01;;;;;;;7.40;4.30;;;13.50;29.50;;;;;;5150106;27;45437;-49
2024/01/21 03:41:28;;;;;;;5.88;4.00;;;13.50;29.50;;;;;;5150294;27;45454;-48
2024/01/21 03:43:56;;;;;;;5.63;3.95;;;13.50;29.40;;;;;;5151836;27;48045;-48
2024/01/21 03:46:24;;;;;;;6.57;4.32;;;13.60;29.50;;;;;;5150569;27;45231;-48
2024/01/21 03:48:52;;;;;;;7.50;4.22;;;13.50;29.40;;;;;;5148084;27;44640;-49
2024/01/21 03:51:18;;;;;;;6.78;4.10;;;13.60;33.20;;;;;;5154184;27;45453;-49
2024/01/21 03:53:45;;;;;;;6.63;4.25;;;13.60;31.50;;;;;;5151968;27;45561;-49
2024/01/21 03:56:18;;;;;;;6.38;4.40;;;13.60;30.80;;;;;;5148628;27;44669;-49
2024/01/21 03:58:44;;;;;;;6.22;3.90;;;13.60;30.10;;;;;;5150086;27;45406;-49
2024/01/21 04:01:11;;;;;;;6.88;4.18;;;13.60;30.00;;;;;;5152924;27;45512;-49
2024/01/21 04:03:38;;;;;;;5.68;4.43;;;13.70;29.90;;;;;;5152662;27;47169;-49
2024/01/21 04:06:06;;;;;;;6.10;4.28;;;13.60;29.70;;;;;;5155135;27;45841;-49
2024/01/21 04:08:33;;;;;;;6.85;4.40;;;13.60;29.60;;;;;;5150407;27;45272;-49
2024/01/21 04:11:00;;;;;;;5.78;4.13;;;13.60;29.40;;;;;;5153258;27;45173;-49
2024/01/21 04:13:27;;;;;;;7.50;4.18;;;13.60;30.50;;;;;;5149437;27;48181;-49
2024/01/21 04:15:54;;;;;;;6.65;4.05;;;13.60;29.50;;;;;;5152737;27;45269;-49
2024/01/21 04:18:20;;;;;;;6.57;3.97;;;13.60;29.60;;;;;;5151901;27;45108;-48
2024/01/21 04:20:47;;;;;;;7.32;4.18;;;13.50;29.50;;;;;;5154279;27;45191;-49
2024/01/21 04:23:15;;;;;;;6.85;4.10;;;13.50;29.50;;;;;;5148011;27;45416;-49
2024/01/21 04:25:42;;;;;;;7.00;4.32;;;13.50;29.40;;;;;;5148567;27;45195;-49
2024/01/21 04:28:08;;;;;;;7.32;4.13;;;13.50;29.40;;;;;;5150477;27;45246;-49
2024/01/21 04:30:36;;;;;;;7.30;4.65;;;13.50;29.40;;;;;;5148900;27;44876;-49
2024/01/21 04:33:03;;;;;;;6.63;4.28;;;13.50;29.20;;;;;;5152912;27;47452;-49
2024/01/21 04:35:30;;;;;;;6.28;3.88;;;13.50;29.20;;;;;;5152340;27;45316;-49
2024/01/21 04:37:57;;;;;;;6.68;4.15;;;13.50;29.40;;;;;;5150245;27;44653;-49
2024/01/21 04:40:26;;;;;;;7.80;4.70;;;13.50;29.30;;;;;;5145878;27;44716;-49
2024/01/21 04:42:52;;;;;;;6.18;3.70;;;13.50;29.20;;;;;;5149347;27;47961;-49
2024/01/21 04:45:19;;;;;;;6.75;4.28;;;13.50;29.20;;;;;;5151739;27;45364;-49
2024/01/21 04:47:46;;;;;;;6.07;4.22;;;13.50;29.10;;;;;;5152463;27;45206;-49
2024/01/21 04:50:13;;;;;;;6.43;3.80;;;13.50;29.00;;;;;;5151086;27;45493;-48
2024/01/21 04:52:39;;;;;;;7.25;4.45;;;13.50;28.90;;;;;;5153089;27;45186;-49
2024/01/21 04:55:07;;;;;;;7.03;4.25;;;13.50;29.00;;;;;;5149872;27;45147;-49
2024/01/21 04:57:35;;;;;;;5.90;3.95;;;13.60;28.90;;;;;;5150777;27;45220;-49
2024/01/21 05:00:02;;;;;;;6.57;3.90;;;13.60;29.20;;;;;;5154967;27;45282;-49
2024/01/21 05:02:29;;;;;;;6.07;4.05;;;13.60;37.70;;;;;;5150554;27;47319;-49
2024/01/21 05:04:57;;;;;;;6.88;4.25;;;13.60;32.70;;;;;;5152805;27;45210;-49
2024/01/21 05:07:23;;;;;;;6.32;4.05;;;13.60;31.10;;;;;;5152222;27;45359;-49
2024/01/21 05:09:50;;;;;;;5.30;3.97;;;13.50;30.50;;;;;;5153353;27;45427;-49
2024/01/21 05:12:17;;;;;;;7.00;4.30;;;13.50;30.10;;;;;;5152812;27;45268;-49
2024/01/21 05:14:45;;;;;;;6.75;3.67;;;13.50;29.90;;;;;;5151300;27;45181;-49
2024/01/21 05:17:12;;;;;;;7.85;4.55;;;13.50;29.80;;;;;;5151656;27;45217;-49
2024/01/21 05:19:38;;;;;;;6.13;4.18;;;13.50;29.70;;;;;;5149453;27;45198;-49
2024/01/21 05:22:05;;;;;;;6.22;4.13;;;13.50;29.60;;;;;;5153311;27;45480;-49
2024/01/21 05:24:35;;;;;;;6.07;4.18;;;13.50;29.50;;;;;;5150060;27;45228;-49
2024/01/21 05:27:02;;;;;;;5.75;3.70;;;13.50;30.40;;;;;;5154427;27;45522;-49
2024/01/21 05:29:29;;;;;;;6.95;4.10;;;13.50;29.30;;;;;;5150091;27;45508;-49
2024/01/21 05:31:57;;;;;;;6.95;4.03;;;13.50;29.30;;;;;;5150979;27;45136;-49
2024/01/21 05:34:23;;;;;;;6.22;3.97;;;13.50;29.20;;;;;;5151844;27;45262;-49
2024/01/21 05:36:50;;;;;;;6.80;4.00;;;13.50;29.20;;;;;;5150874;27;45159;-49
2024/01/21 05:39:17;;;;;;;6.18;3.80;;;13.50;29.00;;;;;;5151537;27;45200;-49
2024/01/21 05:41:44;;;;;;;7.05;4.15;;;13.50;29.00;;;;;;5148861;27;47883;-49
2024/01/21 05:44:10;;;;;;;7.47;4.18;;;13.50;29.00;;;;;;5151290;27;44655;-49
2024/01/21 05:46:37;;;;;;;7.22;4.13;;;13.50;28.90;;;;;;5153758;27;45217;-49
2024/01/21 05:49:05;;;;;;;6.55;4.28;;;13.50;28.80;;;;;;5153570;27;45141;-49
2024/01/21 05:51:32;;;;;;;6.18;3.92;;;13.60;28.90;;;;;;5151704;27;47715;-49
2024/01/21 05:53:58;;;;;;;6.40;4.05;;;13.50;28.80;;;;;;5150190;27;45219;-49
2024/01/21 05:56:24;;;;;;;5.88;3.97;;;13.50;28.90;;;;;;5151286;27;45074;-49
2024/01/21 05:58:51;;;;;;;5.65;3.58;;;13.50;29.00;;;;;;5156286;27;45283;-49
2024/01/21 06:01:18;;;;;;;5.65;3.70;;;13.50;28.90;;;;;;5154618;27;45474;-49
2024/01/21 06:03:44;;;;;;;6.47;4.40;;;13.50;28.90;;;;;;5152036;27;45103;-48
2024/01/21 06:06:13;;;;;;;7.82;4.07;;;13.50;33.20;;;;;;5153062;27;45105;-49
2024/01/21 06:08:41;;;;;;;6.68;4.22;;;13.60;30.70;;;;;;5150892;27;45321;-49
2024/01/21 06:11:07;;;;;;;5.70;3.92;;;13.50;29.90;;;;;;5154265;27;46692;-48
2024/01/21 06:13:34;;;;;;;7.47;4.22;;;13.60;29.80;;;;;;5152253;27;45289;-49
2024/01/21 06:16:02;;;;;;;6.03;3.95;;;13.50;29.60;;;;;;5150306;27;45281;-49
2024/01/21 06:18:29;;;;;;;4.78;3.67;;;13.50;29.60;;;;;;5150072;27;45354;-49
2024/01/21 06:20:56;;;;;;;5.60;3.88;;;13.50;29.50;;;;;;5153115;27;48083;-48
2024/01/21 06:23:24;;;;;;;6.00;3.63;;;13.50;29.40;;;;;;5151072;27;45630;-48
2024/01/21 06:25:51;;;;;;;5.90;3.75;;;13.50;29.40;;;;;;5154227;27;45135;-48
2024/01/21 06:28:18;;;;;;;7.72;3.78;;;13.50;29.30;;;;;;5152475;27;45172;-49
2024/01/21 06:30:45;;;;;;;5.72;3.55;;;13.50;29.20;;;;;;5151779;27;45332;-49
2024/01/21 06:33:12;;;;;;;8.88;4.00;;;13.50;29.20;;;;;;5151490;27;45255;-49
2024/01/21 06:35:39;;;;;;;5.05;3.63;;;13.50;29.10;;;;;;5149205;27;45583;-49
2024/01/21 06:38:06;;;;;;;5.72;3.38;;;13.50;29.20;;;;;;5149094;27;45216;-49
2024/01/21 06:40:34;;;;;;;5.65;3.70;;;13.50;29.10;;;;;;5149488;27;46543;-49
2024/01/21 06:43:01;;;;;;;5.75;3.63;;;13.50;29.10;;;;;;5152725;27;45169;-49
2024/01/21 06:45:27;;;;;;;5.10;3.42;;;13.50;29.10;;;;;;5150617;27;45309;-49
2024/01/21 06:47:54;;;;;;;5.90;3.58;;;13.50;29.20;;;;;;5154603;27;45354;-49
2024/01/21 06:50:22;;;;;;;6.07;3.83;;;13.50;29.10;;;;;;5153047;27;45403;-49
2024/01/21 06:52:49;;;;;;;5.45;3.67;;;13.50;29.20;;;;;;5151786;27;45184;-48
2024/01/21 06:55:17;;;;;;;6.50;3.58;;;13.50;29.20;;;;;;5152781;27;45360;-49
2024/01/21 06:57:45;;;;;;;5.15;3.45;;;13.40;29.10;;;;;;5149624;27;44889;-48
2024/01/21 07:00:14;;;;;;;4.35;3.03;;;13.50;29.10;;;;;;5151379;27;45197;-49
2024/01/21 07:02:41;;;;;;;7.32;3.25;;;13.50;29.10;;;;;;5151924;27;45316;-48
2024/01/21 07:05:09;;;;;;;6.82;3.90;;;13.50;29.20;;;;;;5152662;27;45226;-49
2024/01/21 07:07:36;;;;;;;7.10;3.97;;;13.40;29.10;;;;;;5150764;27;45356;-49
2024/01/21 07:10:03;;;;;;;6.38;3.83;;;13.40;29.10;;;;;;5151870;27;46258;-49
2024/01/21 07:12:30;;;;;;;5.88;3.45;;;13.50;29.10;;;;;;5149891;27;45311;-48
2024/01/21 07:14:58;;;;;;;7.47;3.85;;;13.50;29.10;;;;;;5154621;27;45124;-49
2024/01/21 07:17:24;;;;;;;7.85;3.85;;;13.50;33.10;;;;;;5151724;27;45307;-49
2024/01/21 07:19:53;;;;;;;5.85;3.60;;;13.50;30.80;;;;;;5153732;27;45447;-49
2024/01/21 07:22:20;;;;;;;4.63;3.30;;;13.50;30.00;;;;;;5151816;27;45181;-48
2024/01/21 07:24:47;;;;;;;5.93;3.80;;;13.50;29.90;;;;;;5155848;27;45421;-49
2024/01/21 07:27:14;;;;;;;6.53;3.55;;;13.50;30.80;;;;;;5152270;27;44870;-49
2024/01/21 07:29:41;;;;;;;5.10;3.33;;;13.50;29.60;;;;;;5152870;27;46537;-49
2024/01/21 07:32:09;;;;;;;5.32;3.40;;;13.50;29.60;;;;;;5149375;27;45343;-49
2024/01/21 07:34:36;;;;;;;6.15;3.90;;;13.50;29.60;;;;;;5151127;27;45146;-49
2024/01/21 07:37:03;;;;;;;5.90;3.47;;;13.50;29.60;;;;;;5151005;27;45244;-49
2024/01/21 07:39:29;;;;;;;5.22;3.67;;;13.50;29.50;;;;;;5149944;27;46547;-49
2024/01/21 07:41:56;;;;;;;5.68;3.60;;;13.50;29.70;;;;;;5147518;27;45224;-49
2024/01/21 07:44:23;;;;;;;5.78;3.78;;;13.50;29.60;;;;;;5149710;27;45439;-48
2024/01/21 07:46:49;;;;;;;5.70;3.47;;;13.50;29.60;;;;;;5150054;27;45379;-48
2024/01/21 07:49:18;;;;;;;5.93;3.67;;;13.50;29.50;;;;;;5149381;27;45416;-48
2024/01/21 07:51:46;;;;;;;4.82;3.22;;;13.50;29.50;;;;;;5149508;27;45197;-48
2024/01/21 07:54:13;;;;;;;4.15;3.35;;;13.50;29.50;;;;;;5147927;27;45159;-48
2024/01/21 07:56:40;;;;;;;6.00;3.58;;;13.50;29.50;;;;;;5147404;27;45217;-49
2024/01/21 07:59:07;;;;;;;7.43;4.18;;;13.50;29.50;;;;;;5151143;27;45275;-48
2024/01/21 08:01:33;;;;;;;5.40;3.33;;;13.50;29.50;;;;;;5150242;27;45999;-48
2024/01/21 08:04:00;;;;;;;5.32;3.45;;;13.50;29.50;;;;;;5153682;27;44619;-48
2024/01/21 08:06:28;;;;;;;5.13;3.83;;;13.50;29.50;;;;;;5151912;27;45108;-49
2024/01/21 08:08:55;;;;;;;5.18;3.38;;;13.50;29.50;;;;;;5151370;27;46034;-49
2024/01/21 08:11:22;;;;;;;5.57;3.58;;;13.50;29.50;;;;;;5148671;27;46043;-48
2024/01/21 08:13:48;;;;;;;5.43;3.63;;;13.50;30.40;;;;;;5150046;27;45358;-49
2024/01/21 08:16:15;;;;;;;5.53;3.63;;;13.50;29.40;;;;;;5152076;27;45361;-49
2024/01/21 08:18:42;;;;;;;6.78;4.03;;;13.50;29.40;;;;;;5150024;27;47586;-49
2024/01/21 08:21:09;;;;;;;5.43;3.55;;;13.50;29.40;;;;;;5151095;27;45255;-49
2024/01/21 08:23:40;;;;;;;5.25;3.60;;;13.50;29.40;;;;;;5154088;27;45364;-49
2024/01/21 08:26:06;;;;;;;4.70;3.60;;;13.50;29.50;;;;;;5152877;27;45428;-49
2024/01/21 08:28:33;;;;;;;6.93;3.88;;;13.50;29.60;;;;;;5153941;27;45259;-49
2024/01/21 08:31:02;;;;;;;6.32;3.50;;;13.50;29.60;;;;;;5156215;27;45257;-49
2024/01/21 08:33:29;;;;;;;5.97;3.30;;;13.40;29.50;;;;;;5155546;27;45248;-49
2024/01/21 08:35:56;;;;;;;6.82;3.80;;;13.40;29.70;;;;;;5154389;27;45187;-49
2024/01/21 08:38:22;;;;;;;6.40;3.67;;;13.40;29.80;;;;;;5150520;27;45278;-49
2024/01/21 08:40:50;;;;;;;5.18;3.42;;;13.40;29.80;;;;;;5155410;27;44972;-49
2024/01/21 08:43:17;;;;;;;5.93;3.78;;;13.40;29.90;;;;;;5153539;27;45156;-49
2024/01/21 08:45:44;;;;;;;7.15;3.80;;;13.40;30.00;;;;;;5156593;27;45165;-48
2024/01/21 08:48:11;;;;;;;6.18;4.03;;;13.30;30.00;;;;;;5150225;27;45599;-49
2024/01/21 08:50:39;;;;;;;5.25;3.60;;;13.40;30.20;;;;;;5152008;27;45330;-49
2024/01/21 08:53:06;;;;;;;6.20;3.80;;;13.40;33.40;;;;;;5152838;27;45238;-49
2024/01/21 08:55:33;;;;;;;5.13;3.72;;;13.40;31.90;;;;;;5149189;27;45307;-49
2024/01/21 08:58:01;;;;;;;5.60;3.85;;;13.40;31.20;;;;;;5152732;27;45232;-49
2024/01/21 09:00:28;;;;;;;4.65;3.40;;;13.40;30.70;;;;;;5152080;27;45252;-49
2024/01/21 09:02:55;;;;;;;5.75;3.55;;;13.40;30.30;;;;;;5152642;27;45399;-49
2024/01/21 09:05:22;;;;;;;5.50;3.53;;;13.40;30.20;;;;;;5152849;27;45180;-49
2024/01/21 09:07:49;;;;;;;5.38;3.67;;;13.40;30.00;;;;;;5152248;27;48018;-49
2024/01/21 09:10:15;;;;;;;6.03;3.50;;;13.40;30.00;;;;;;5149816;27;45225;-49
2024/01/21 09:12:42;;;;;;;5.18;3.65;;;13.40;30.00;;;;;;5151223;27;45100;-49
2024/01/21 09:15:10;;;;;;;4.47;3.20;;;13.40;30.00;;;;;;5153807;27;44941;-49
2024/01/21 09:17:37;;;;;;;6.43;3.65;;;13.40;30.00;;;;;;5152539;27;47028;-48
2024/01/21 09:20:04;;;;;;;6.47;4.15;;;13.30;30.00;;;;;;5155884;27;45211;-49
2024/01/21 09:22:31;;;;;;;6.45;3.63;;;13.30;29.90;;;;;;5151961;27;45237;-49
2024/01/21 09:24:57;;;;;;;4.40;3.25;;;13.30;29.90;;;;;;5154792;27;44871;-49
2024/01/21 09:27:24;;;;;;;6.45;3.30;;;13.30;29.80;;;;;;5151965;27;45281;-49
2024/01/21 09:29:51;;;;;;;6.35;3.50;;;13.40;29.90;;;;;;5153047;27;45219;-49
2024/01/21 09:32:19;;;;;;;6.60;4.38;;;13.40;29.90;;;;;;5152298;27;45170;-49
2024/01/21 09:34:46;;;;;;;7.35;3.90;;;13.40;29.90;;;;;;5156818;27;45179;-49
2024/01/21 09:37:13;;;;;;;6.78;4.10;;;13.40;29.90;;;;;;5153277;27;45339;-48
2024/01/21 09:39:39;;;;;;;7.72;3.92;;;13.50;30.00;;;;;;5152085;27;44629;-49
2024/01/21 09:42:08;;;;;;;7.00;4.20;;;13.50;30.00;;;;;;5154895;27;45219;-49
2024/01/21 09:44:35;;;;;;;6.97;4.25;;;13.50;30.20;;;;;;5152632;27;45175;-49
2024/01/21 09:47:03;;;;;;;8.02;4.78;;;13.50;30.00;;;;;;5154499;27;46269;-49
2024/01/21 09:49:32;;;;;;;5.47;3.60;;;13.50;30.00;;;;;;5151179;27;45435;-48
2024/01/21 09:51:59;;;;;;;5.97;3.58;;;13.50;30.00;;;;;;5155592;27;45227;-49
2024/01/21 09:54:26;;;;;;;5.63;3.75;;;13.60;30.00;;;;;;5152685;27;45160;-49
2024/01/21 09:56:53;;;;;;;7.55;4.15;;;13.60;30.00;;;;;;5155780;27;45208;-49
2024/01/21 09:59:19;;;;;;;7.50;4.05;;;13.60;30.00;;;;;;5151303;27;45641;-49
2024/01/21 10:01:47;;;;;;;5.25;3.92;;;13.60;30.00;;;;;;5151573;27;45342;-49
2024/01/21 10:04:15;;;;;;;5.28;3.72;;;13.60;30.10;;;;;;5156080;27;45173;-49
2024/01/21 10:06:43;;;;;;;5.25;3.40;;;13.50;30.10;;;;;;5151438;27;45426;-48
2024/01/21 10:09:14;;;;;;;5.57;3.90;;;13.60;30.30;;;;;;5153013;27;45216;-49
2024/01/21 10:11:41;;;;;;;5.80;3.67;;;13.50;30.10;;;;;;5152136;27;45197;-49
2024/01/21 10:14:07;;;;;;;7.07;3.85;;;13.60;30.30;;;;;;5154558;27;45221;-49
2024/01/21 10:16:34;;;;;;;7.07;3.72;;;13.60;30.30;;;;;;5150306;27;47448;-49
2024/01/21 10:19:02;;;;;;;7.93;3.55;;;13.50;30.20;;;;;;5153517;27;44660;-49
2024/01/21 10:21:29;;;;;;;5.53;3.40;;;13.50;30.20;;;;;;5154936;27;45165;-49
2024/01/21 10:23:57;;;;;;;5.85;3.92;;;13.60;30.30;;;;;;5153693;27;45107;-49
2024/01/21 10:26:24;;;;;;;8.45;3.92;;;13.60;30.30;;;;;;5156888;27;45322;-49
2024/01/21 10:28:50;;;;;;;7.05;3.60;;;13.60;30.30;;;;;;5156812;27;45226;-49
2024/01/21 10:31:18;;;;;;;5.88;3.67;;;13.60;30.40;;;;;;5156490;27;45093;-49
2024/01/21 10:33:45;;;;;;;5.28;3.55;;;13.60;30.50;;;;;;5154617;27;45095;-49
2024/01/21 10:36:13;;;;;;;6.40;3.67;;;13.60;30.50;;;;;;5153921;27;46626;-49
2024/01/21 10:38:48;;;;;;;5.30;3.67;;;13.60;30.30;;;;;;5155076;27;45362;-49
2024/01/21 10:41:30;;;;;;;5.25;3.25;;;13.60;30.40;;;;;;5152663;27;45243;-49
2024/01/21 10:43:58;;;;;;;5.93;3.47;;;13.60;30.40;;;;;;5151124;27;44782;-49
2024/01/21 10:46:26;;;;;;;7.32;3.75;;;13.60;30.30;;;;;;5151289;27;46227;-49
2024/01/21 10:48:55;;;;;;;6.05;3.33;;;13.60;30.30;;;;;;5157466;27;45237;-49
2024/01/21 10:51:22;;;;;;;5.35;3.50;;;13.70;30.30;;;;;;5151625;27;45269;-49
2024/01/21 10:53:51;;;;;;;5.55;3.20;;;13.60;30.30;;;;;;5153898;27;45222;-49
2024/01/21 10:56:19;;;;;;;7.07;3.90;;;13.60;30.40;;;;;;5152559;27;45440;-48
2024/01/21 10:58:46;;;;;;;5.45;3.30;;;13.60;30.60;;;;;;5155477;27;45188;-49
2024/01/21 11:01:15;;;;;;;6.03;3.65;;;13.60;30.50;;;;;;5157562;27;45114;-49
2024/01/21 11:03:43;;;;;;;5.72;3.45;;;13.60;30.60;;;;;;5153960;27;45233;-49
2024/01/21 11:06:11;;;;;;;6.97;3.95;;;13.60;30.60;;;;;;5153379;27;46360;-49
2024/01/21 11:08:42;;;;;;;8.13;4.22;;;13.60;30.70;;;;;;5149162;27;45094;-49
2024/01/21 11:11:16;;;;;;;8.00;4.03;;;13.60;30.70;;;;;;5153841;27;44630;-49
2024/01/21 11:13:46;;;;;;;5.47;3.53;;;13.60;30.90;;;;;;5150427;27;45357;-49
2024/01/21 11:16:34;;;;;;;7.70;3.45;;;13.60;30.80;;;;;;5150052;27;46577;-49
2024/01/21 11:19:03;;;;;;;8.35;4.13;;;13.60;30.90;;;;;;5153502;27;45322;-49
2024/01/21 11:21:30;;;;;;;7.35;4.15;;;13.70;31.10;;;;;;5154495;27;45359;-49
2024/01/21 11:24:03;;;;;;;5.55;3.72;;;13.60;31.20;;;;;;5153961;27;45230;-49
2024/01/21 11:26:30;;;;;;;5.57;3.65;;;13.60;31.40;;;;;;5152735;27;45360;-49
2024/01/21 11:29:00;;;;;;;4.95;3.25;;;13.60;31.30;;;;;;5151660;27;44627;-49
2024/01/21 11:31:31;;;;;;;5.05;3.20;;;13.60;31.40;;;;;;5152267;27;45201;-48
2024/01/21 11:34:05;;;;;;;5.72;3.38;;;13.70;36.50;;;;;;5154516;27;45366;-49
2024/01/21 11:36:32;;;;;;;5.55;3.78;;;13.70;35.40;;;;;;5152564;27;46531;-49
2024/01/21 11:39:00;;;;;;;5.05;3.35;;;13.70;35.00;;;;;;5155194;27;45156;-49
2024/01/21 11:41:37;;;;;;;5.45;3.05;;;13.70;33.10;;;;;;5148905;27;45248;-49
2024/01/21 11:44:14;;;;;;;7.03;3.92;;;13.70;32.90;;;;;;5154228;27;45203;-48
2024/01/21 11:46:41;;;;;;;6.03;3.42;;;13.70;32.90;;;;;;5149767;27;45129;-49
2024/01/21 11:49:09;;;;;;;4.95;3.55;;;13.70;32.70;;;;;;5151671;27;45329;-49
2024/01/21 11:51:36;;;;;;;5.95;3.50;;;13.60;32.50;;;;;;5150410;27;45192;-49
2024/01/21 11:54:03;;;;;;;6.10;3.25;;;13.70;32.60;;;;;;5149596;27;45336;-48
2024/01/21 11:56:30;;;;;;;6.18;3.50;;;13.70;32.50;;;;;;5153737;27;46263;-49
2024/01/21 11:58:57;;;;;;;5.65;3.47;;;13.70;32.50;;;;;;5152629;27;45213;-49
2024/01/21 12:01:26;;;;;;;5.70;3.30;;;13.70;32.50;;;;;;5149605;27;45568;-48
2024/01/21 12:03:53;;;;;;;5.35;3.25;;;13.70;32.40;;;;;;5153021;27;45234;-49
2024/01/21 12:06:21;;;;;;;5.57;3.42;;;13.70;32.50;;;;;;5151501;27;46531;-49
2024/01/21 12:08:48;;;;;;;5.80;3.38;;;13.70;32.60;;;;;;5149398;27;45301;-49
2024/01/21 12:11:16;;;;;;;5.32;3.40;;;13.70;32.60;;;;;;5150848;27;45243;-49
2024/01/21 12:13:44;;;;;;;6.20;3.53;;;13.70;32.70;;;;;;5153674;27;45420;-49
2024/01/21 12:16:11;;;;;;;4.95;3.40;;;13.70;32.70;;;;;;5154384;27;45538;-48
2024/01/21 12:18:40;;;;;;;7.03;3.85;;;13.70;32.70;;;;;;5149150;27;45341;-48
2024/01/21 12:21:07;;;;;;;6.80;3.40;;;13.70;32.60;;;;;;5152836;27;45213;-49
2024/01/21 12:23:35;;;;;;;4.70;3.00;;;13.70;32.80;;;;;;5149027;27;44696;-48
2024/01/21 12:26:02;;;;;;;4.88;3.25;;;13.70;32.80;;;;;;5155441;27;45254;-49
2024/01/21 12:28:29;;;;;;;4.40;3.05;;;13.80;32.90;;;;;;5149101;27;45151;-48
2024/01/21 12:30:56;;;;;;;6.72;3.45;;;13.70;32.90;;;;;;5155298;27;45200;-48
2024/01/21 12:33:23;;;;;;;4.18;2.85;;;13.70;33.20;;;;;;5151978;27;45397;-48
2024/01/21 12:35:51;;;;;;;7.15;3.20;;;13.70;33.10;;;;;;5154141;27;46466;-49
2024/01/21 12:38:18;;;;;;;5.03;3.05;;;13.70;33.30;;;;;;5148026;27;45208;-49
2024/01/21 12:40:46;;;;;;;4.68;3.00;;;13.70;33.60;;;;;;5149155;27;45207;-49
2024/01/21 12:43:16;;;;;;;3.60;2.50;;;13.70;33.60;;;;;;5153720;27;45600;-49
2024/01/21 12:45:43;;;;;;;5.30;2.67;;;13.70;33.80;;;;;;5149921;27;46403;-49
2024/01/21 12:48:10;;;;;;;4.60;2.67;;;13.70;33.80;;;;;;5153465;27;45343;-48